Photometre #649[NE_1.6_Dp] Lille AOT

File : 20220923_649.hum

23/09/2022,06:31:11,TEMP=10.6,BA=5.64,STAT.A=25.0,ExtBa=13.13
23/09/2022,06:35:14,TEMP=10.8,BA=5.64,STAT.A=25.0,ExtBa=13.07
23/09/2022,06:40:00,TEMP=10.9,BA=5.64,STAT.A=25.0,ExtBa=13.04
23/09/2022,06:45:44,TEMP=11.0,BA=5.56,STAT.A=25.0,ExtBa=12.95
23/09/2022,06:52:35,TEMP=11.1,BA=5.64,STAT.A=25.0,ExtBa=12.97
23/09/2022,07:01:05,TEMP=11.3,BA=5.64,STAT.A=25.0,ExtBa=12.98
23/09/2022,07:11:51,TEMP=11.5,BA=5.64,STAT.B=25.0,ExtBa=12.97
23/09/2022,07:17:03,TEMP=12.0,BA=5.64,STAT.A=24.5,ExtBa=11.72
23/09/2022,07:22:54,TEMP=12.1,BA=5.64,STAT.A=25.0,ExtBa=12.84
23/09/2022,07:29:29,TEMP=12.4,BA=5.64,STAT.A=25.0,ExtBa=12.85
23/09/2022,07:37:01,TEMP=12.8,BA=5.60,STAT.A=25.0,ExtBa=12.77
23/09/2022,07:45:42,TEMP=13.0,BA=5.64,STAT.C=25.0,ExtBa=12.75
23/09/2022,07:55:54,TEMP=13.1,BA=5.64,STAT.A=25.0,ExtBa=12.84
23/09/2022,08:08:04,TEMP=13.3,BA=5.64,STAT.A=25.5,ExtBa=12.79
23/09/2022,08:22:54,TEMP=13.9,BA=5.64,STAT.A=25.5,ExtBa=12.78
23/09/2022,08:40:33,TEMP=14.8,BA=5.64,STAT.F,ExtBa=12.41
23/09/2022,08:55:32,TEMP=15.8,BA=5.52,STAT.D=25.0,ExtBa=12.06
23/09/2022,09:10:32,TEMP=16.9,BA=5.64,STAT.D=25.5,ExtBa=12.54
23/09/2022,09:40:50,TEMP=22.5,BA=5.64,STAT.F,ExtBa=12.62
23/09/2022,09:55:32,TEMP=21.1,BA=5.48,STAT.D=14.0,ExtBa=12.35
23/09/2022,10:10:32,TEMP=19.6,BA=5.60,STAT.D=11.0,ExtBa=12.55
23/09/2022,10:25:32,TEMP=18.7,BA=5.60,STAT.D=10.0,ExtBa=12.66
23/09/2022,10:40:34,TEMP=18.6,BA=5.60,STAT.F,ExtBa=12.74
23/09/2022,10:55:32,TEMP=18.6,BA=5.60,STAT.D=9.0,ExtBa=12.79
23/09/2022,11:10:32,TEMP=19.1,BA=5.60,STAT.D=9.0,ExtBa=12.86
23/09/2022,11:25:32,TEMP=19.3,BA=5.60,STAT.D=9.0,ExtBa=12.89
23/09/2022,11:40:34,TEMP=19.5,BA=5.60,STAT.F,ExtBa=12.96
23/09/2022,11:55:32,TEMP=19.6,BA=5.60,STAT.D=8.5,ExtBa=12.89
23/09/2022,12:10:32,TEMP=19.8,BA=5.60,STAT.D=8.5,ExtBa=12.91
23/09/2022,12:25:32,TEMP=20.0,BA=5.60,STAT.D=8.5,ExtBa=12.91
23/09/2022,12:40:34,TEMP=20.3,BA=5.60,STAT.F,ExtBa=12.90
23/09/2022,12:55:32,TEMP=20.1,BA=5.60,STAT.D=8.5,ExtBa=12.92
23/09/2022,13:10:32,TEMP=20.1,BA=5.60,STAT.D=8.5,ExtBa=12.90
23/09/2022,13:25:32,TEMP=19.9,BA=5.60,STAT.D=8.5,ExtBa=12.88
23/09/2022,13:40:30,TEMP=20.1,BA=5.60,STAT.h
23/09/2022,13:55:11,TEMP=20.1,BA=5.60,STAT.h
23/09/2022,14:10:11,TEMP=20.1,BA=5.60,STAT.h
23/09/2022,14:25:11,TEMP=20.1,BA=5.60,STAT.h
23/09/2022,14:40:11,TEMP=20.1,BA=5.60,STAT.h
23/09/2022,14:57:48,TEMP=20.1,BA=5.60,STAT.h
23/09/2022,15:12:38,TEMP=20.1,BA=5.60,STAT.h
23/09/2022,15:24:48,TEMP=20.1,BA=5.60,STAT.h
23/09/2022,15:35:23,TEMP=16.2,BA=5.60,STAT.C=8.5,ExtBa=13.00
23/09/2022,15:35:25,TEMP=16.2,BA=5.60,STAT.h
23/09/2022,15:43:43,TEMP=16.2,BA=5.60,STAT.h
23/09/2022,15:51:37,TEMP=16.0,BA=5.60,STAT.A=8.5,ExtBa=12.91
23/09/2022,15:58:12,TEMP=16.2,BA=5.60,STAT.A=8.5,ExtBa=12.90
23/09/2022,16:04:02,TEMP=16.2,BA=5.60,STAT.A=8.5,ExtBa=12.89
23/09/2022,16:09:13,TEMP=16.3,BA=5.60,STAT.B=8.5,ExtBa=12.90
23/09/2022,16:20:00,TEMP=16.1,BA=5.52,STAT.A=8.5,ExtBa=12.88
23/09/2022,16:28:07,TEMP=16.3,BA=5.56,STAT.h
23/09/2022,16:35:00,TEMP=16.3,BA=5.60,STAT.h
23/09/2022,16:40:41,TEMP=16.3,BA=5.60,STAT.h
23/09/2022,16:45:11,TEMP=16.3,BA=5.60,STAT.h
23/09/2022,16:45:27,TEMP=16.3,BA=5.60,STAT.h
23/09/2022,16:49:53,TEMP=14.9,BA=5.60,STAT.A=8.5,ExtBa=12.87
23/09/2022,16:50:05,TEMP=14.9,BA=5.56,STAT.h